Time;durP1;ratioP1;P1;durP2;ratioP2;P2;SDS_P1;SDS_P2;PMS_P1;PMS_P2;Temp;Humidity;BMP_temperature;BMP_pressure;BME280_temperature;BME280_humidity;BME280_pressure;Samples;Min_cycle;Max_cycle;Signal;HPM_P1;HPM_P2
2024/02/22 00:00:46;;;;;;;0.70;0.70;;;16.20;61.70;;;;;;5114687;28;20176;-57
2024/02/22 00:03:15;;;;;;;0.80;0.80;;;16.20;61.70;;;;;;5115296;28;20242;-55
2024/02/22 00:05:41;;;;;;;0.73;0.68;;;16.20;61.70;;;;;;5114731;28;20509;-56
2024/02/22 00:08:06;;;;;;;0.70;0.70;;;16.10;61.70;;;;;;5114411;28;20184;-58
2024/02/22 00:10:33;;;;;;;0.80;0.80;;;16.20;61.80;;;;;;5115059;28;20519;-58
2024/02/22 00:12:59;;;;;;;0.80;0.70;;;16.20;62.70;;;;;;5115140;28;20205;-58
2024/02/22 00:15:25;;;;;;;0.60;0.60;;;16.20;61.80;;;;;;5114063;28;20174;-59
2024/02/22 00:17:51;;;;;;;1.38;0.80;;;16.10;61.80;;;;;;5115055;28;20577;-59
2024/02/22 00:20:18;;;;;;;0.80;0.63;;;16.20;61.90;;;;;;5114712;28;20507;-58
2024/02/22 00:22:44;;;;;;;0.95;0.85;;;16.10;61.80;;;;;;5114043;28;20209;-56
2024/02/22 00:25:09;;;;;;;0.63;0.60;;;16.10;61.90;;;;;;5115079;28;20257;-58
2024/02/22 00:27:36;;;;;;;1.00;0.90;;;16.10;61.90;;;;;;5114702;28;20201;-58
2024/02/22 00:30:02;;;;;;;0.60;0.60;;;16.10;61.90;;;;;;5114518;28;20177;-57
2024/02/22 00:32:28;;;;;;;0.60;0.60;;;16.10;61.90;;;;;;5114444;28;20169;-58
2024/02/22 00:34:53;;;;;;;0.70;0.70;;;16.10;62.00;;;;;;5113970;28;20184;-57
2024/02/22 00:37:19;;;;;;;0.70;0.70;;;16.00;62.00;;;;;;5114423;28;20183;-58
2024/02/22 00:39:46;;;;;;;0.82;0.63;;;16.00;62.00;;;;;;5114674;28;20181;-58
2024/02/22 00:42:11;;;;;;;1.05;0.95;;;16.00;62.00;;;;;;5113855;28;20177;-58
2024/02/22 00:44:37;;;;;;;0.60;0.60;;;16.00;62.00;;;;;;5114066;28;20217;-59
2024/02/22 00:47:02;;;;;;;0.60;0.60;;;16.00;62.00;;;;;;5114624;28;20554;-58
2024/02/22 00:49:28;;;;;;;0.52;0.52;;;16.00;62.10;;;;;;5113290;28;20577;-58
2024/02/22 00:51:54;;;;;;;0.88;0.70;;;16.00;62.10;;;;;;5114339;28;20169;-58
2024/02/22 00:54:19;;;;;;;0.50;0.50;;;16.00;62.10;;;;;;5114283;28;20173;-58
2024/02/22 00:56:45;;;;;;;0.75;0.75;;;16.00;62.10;;;;;;5113475;28;20221;-58
2024/02/22 00:59:10;;;;;;;0.55;0.55;;;16.00;62.10;;;;;;5114275;28;20257;-57
2024/02/22 01:01:36;;;;;;;0.60;0.60;;;16.00;62.20;;;;;;5113902;28;20165;-58
2024/02/22 01:04:02;;;;;;;1.20;0.73;;;16.00;62.10;;;;;;5113516;28;20208;-58
2024/02/22 01:06:28;;;;;;;0.90;0.90;;;16.00;62.20;;;;;;5114710;28;20668;-57
2024/02/22 01:08:53;;;;;;;0.70;0.70;;;16.00;62.20;;;;;;5114824;28;20201;-58
2024/02/22 01:11:19;;;;;;;0.70;0.70;;;15.90;62.20;;;;;;5114078;28;20169;-58
2024/02/22 01:13:48;;;;;;;0.60;0.60;;;16.00;62.30;;;;;;5114567;28;20226;-59
2024/02/22 01:16:16;;;;;;;0.75;0.75;;;15.90;62.30;;;;;;5113604;28;20586;-59
2024/02/22 01:18:41;;;;;;;1.17;0.63;;;15.90;63.10;;;;;;5113182;27;20241;-59
2024/02/22 01:21:07;;;;;;;1.35;0.80;;;15.90;62.20;;;;;;5114019;28;20177;-58
2024/02/22 01:23:33;;;;;;;0.60;0.50;;;15.90;62.30;;;;;;5113708;28;20213;-58
2024/02/22 01:25:58;;;;;;;0.50;0.50;;;15.90;62.30;;;;;;5113070;28;20180;-58
2024/02/22 01:28:24;;;;;;;0.60;0.60;;;15.90;62.30;;;;;;5112817;28;20184;-57
2024/02/22 01:30:49;;;;;;;0.52;0.52;;;15.90;62.30;;;;;;5113659;28;20169;-56
2024/02/22 01:33:15;;;;;;;0.70;0.70;;;15.90;62.30;;;;;;5112525;28;20631;-57
2024/02/22 01:35:41;;;;;;;0.98;0.70;;;15.90;62.40;;;;;;5113463;28;20173;-58
2024/02/22 01:38:06;;;;;;;0.60;0.60;;;15.90;62.40;;;;;;5113040;28;20221;-58
2024/02/22 01:40:32;;;;;;;1.35;0.63;;;15.90;62.40;;;;;;5113271;28;20288;-58
2024/02/22 01:42:57;;;;;;;0.60;0.60;;;15.90;62.40;;;;;;5113413;28;20292;-58
2024/02/22 01:45:23;;;;;;;0.60;0.60;;;15.90;62.50;;;;;;5112394;28;20177;-58
2024/02/22 01:47:49;;;;;;;0.60;0.60;;;15.90;62.50;;;;;;5113752;28;20176;-58
2024/02/22 01:50:14;;;;;;;0.55;0.55;;;15.90;62.50;;;;;;5111781;28;20246;-58
2024/02/22 01:52:40;;;;;;;0.75;0.60;;;15.80;62.50;;;;;;5111276;28;20260;-58
2024/02/22 01:55:06;;;;;;;0.60;0.60;;;15.80;62.40;;;;;;5112072;28;20192;-58
2024/02/22 01:57:33;;;;;;;0.75;0.75;;;15.80;62.40;;;;;;5112742;28;20263;-58
2024/02/22 01:59:58;;;;;;;0.73;0.73;;;15.90;62.60;;;;;;5112435;28;20169;-57
2024/02/22 02:02:24;;;;;;;0.60;0.60;;;15.80;62.50;;;;;;5112606;28;20223;-56
2024/02/22 02:04:49;;;;;;;0.70;0.70;;;15.80;62.50;;;;;;5112975;28;20580;-58
2024/02/22 02:07:15;;;;;;;0.50;0.50;;;15.80;62.60;;;;;;5093996;28;20264;-57
2024/02/22 02:09:40;;;;;;;0.50;0.50;;;15.80;62.60;;;;;;5113073;28;20271;-58
2024/02/22 02:12:06;;;;;;;0.52;0.52;;;15.90;62.70;;;;;;5112951;28;20268;-59
2024/02/22 02:14:32;;;;;;;0.47;0.47;;;15.80;62.60;;;;;;5111945;28;20165;-58
2024/02/22 02:16:58;;;;;;;0.70;0.60;;;15.80;62.60;;;;;;5112870;28;20691;-58
2024/02/22 02:19:25;;;;;;;0.98;0.77;;;15.80;62.60;;;;;;5112370;28;20264;-58
2024/02/22 02:22:10;;;;;;;1.58;0.70;;;15.80;62.60;;;;;;5112295;28;20187;-58
2024/02/22 02:24:41;;;;;;;0.60;0.60;;;15.80;62.60;;;;;;5112689;28;20212;-58
2024/02/22 02:27:06;;;;;;;0.50;0.50;;;15.80;62.70;;;;;;5112714;28;20260;-58
2024/02/22 02:29:32;;;;;;;0.90;0.70;;;15.80;62.70;;;;;;5111582;28;20268;-57
2024/02/22 02:31:57;;;;;;;0.63;0.63;;;15.80;62.70;;;;;;5112603;28;20238;-57
2024/02/22 02:34:23;;;;;;;0.85;0.50;;;15.80;62.70;;;;;;5111563;28;20181;-58
2024/02/22 02:36:48;;;;;;;0.60;0.52;;;15.80;62.70;;;;;;5112758;28;20173;-58
2024/02/22 02:39:14;;;;;;;0.60;0.60;;;15.80;62.70;;;;;;5111609;28;20180;-56
2024/02/22 02:41:39;;;;;;;0.95;0.70;;;15.80;62.70;;;;;;5111702;28;20161;-58
2024/02/22 02:44:05;;;;;;;0.57;0.57;;;15.80;62.70;;;;;;5112358;28;20200;-58
2024/02/22 02:46:31;;;;;;;0.60;0.60;;;15.80;62.70;;;;;;5112108;28;20168;-58
2024/02/22 02:48:56;;;;;;;0.60;0.60;;;15.80;62.70;;;;;;5111890;28;20177;-58
2024/02/22 02:51:22;;;;;;;0.75;0.70;;;15.80;62.80;;;;;;5112107;28;20203;-58
2024/02/22 02:53:47;;;;;;;0.77;0.77;;;15.70;62.70;;;;;;5112519;28;20207;-58
2024/02/22 02:56:13;;;;;;;1.08;0.63;;;15.70;62.80;;;;;;5111333;28;20225;-58
2024/02/22 02:58:38;;;;;;;0.95;0.70;;;15.80;62.80;;;;;;5112325;28;20177;-58
2024/02/22 03:01:04;;;;;;;2.05;0.70;;;15.80;62.80;;;;;;5112239;28;20214;-57
2024/02/22 03:03:33;;;;;;;0.93;0.63;;;15.80;62.80;;;;;;5111155;28;20325;-57
2024/02/22 03:05:58;;;;;;;0.50;0.50;;;15.70;62.80;;;;;;5112174;28;20627;-57
2024/02/22 03:08:23;;;;;;;0.70;0.70;;;15.70;62.80;;;;;;5111762;28;20184;-58
2024/02/22 03:10:49;;;;;;;1.42;0.70;;;15.70;62.80;;;;;;5111433;28;20176;-59
2024/02/22 03:13:15;;;;;;;0.70;0.70;;;15.80;62.90;;;;;;5111938;28;20180;-58
2024/02/22 03:15:40;;;;;;;1.45;1.35;;;15.70;62.90;;;;;;5111916;28;20176;-58
2024/02/22 03:18:06;;;;;;;0.90;0.90;;;15.70;62.90;;;;;;5111624;28;20177;-58
2024/02/22 03:20:32;;;;;;;1.55;0.82;;;15.70;62.90;;;;;;5111853;28;20180;-58
2024/02/22 03:22:58;;;;;;;0.75;0.75;;;15.80;62.90;;;;;;5112202;28;20209;-58
2024/02/22 03:25:24;;;;;;;0.77;0.77;;;15.70;62.90;;;;;;5111144;28;20178;-57
2024/02/22 03:27:50;;;;;;;0.60;0.60;;;15.70;63.00;;;;;;5112012;28;20239;-58
2024/02/22 03:30:18;;;;;;;0.70;0.70;;;15.70;62.90;;;;;;5111701;28;20176;-56
2024/02/22 03:32:44;;;;;;;0.77;0.77;;;15.70;62.90;;;;;;5111467;28;20202;-58
2024/02/22 03:35:12;;;;;;;0.98;0.98;;;15.70;63.00;;;;;;5111661;28;20204;-58
2024/02/22 03:37:38;;;;;;;0.93;0.93;;;15.70;63.00;;;;;;5111318;28;20639;-58
2024/02/22 03:40:05;;;;;;;1.02;0.82;;;15.70;62.90;;;;;;5112002;28;20230;-58
2024/02/22 03:42:31;;;;;;;1.67;0.80;;;15.70;62.90;;;;;;5111282;28;20173;-58
2024/02/22 03:44:57;;;;;;;1.02;0.93;;;15.70;63.00;;;;;;5111165;28;20544;-57
2024/02/22 03:47:22;;;;;;;0.70;0.70;;;15.70;63.00;;;;;;5111539;28;20632;-58
2024/02/22 03:49:48;;;;;;;0.88;0.88;;;15.70;63.00;;;;;;5112026;28;20180;-58
2024/02/22 03:52:13;;;;;;;1.20;1.10;;;15.70;63.00;;;;;;5113491;28;20646;-58
2024/02/22 03:54:39;;;;;;;0.80;0.80;;;15.70;63.10;;;;;;5115586;28;20165;-58
2024/02/22 03:57:05;;;;;;;1.23;0.90;;;15.70;63.00;;;;;;5115239;28;20665;-58
2024/02/22 03:59:31;;;;;;;1.85;0.80;;;15.70;63.10;;;;;;5114605;28;20256;-58
2024/02/22 04:01:56;;;;;;;1.10;1.02;;;15.70;63.10;;;;;;5115552;28;20177;-58
2024/02/22 04:04:22;;;;;;;1.40;1.00;;;15.60;63.00;;;;;;5114927;28;20298;-57
2024/02/22 04:06:47;;;;;;;1.40;1.30;;;15.60;63.10;;;;;;5114590;28;20180;-57
2024/02/22 04:09:14;;;;;;;2.60;1.10;;;15.70;63.10;;;;;;5115021;28;20189;-58
2024/02/22 04:11:39;;;;;;;1.00;0.95;;;15.60;63.10;;;;;;5115074;28;20673;-58
2024/02/22 04:14:05;;;;;;;2.08;1.20;;;15.70;63.10;;;;;;5114740;28;20177;-58
2024/02/22 04:16:30;;;;;;;1.20;1.10;;;15.70;63.10;;;;;;5114853;28;20708;-58
2024/02/22 04:18:56;;;;;;;2.20;1.52;;;15.60;63.10;;;;;;5115210;28;20183;-57
2024/02/22 04:21:22;;;;;;;1.58;1.15;;;15.60;63.10;;;;;;5113967;28;20177;-57
2024/02/22 04:23:47;;;;;;;1.17;1.10;;;15.60;63.10;;;;;;5115141;28;20212;-58
2024/02/22 04:26:13;;;;;;;0.88;0.88;;;15.70;63.10;;;;;;5114635;28;20169;-56
2024/02/22 04:28:38;;;;;;;1.23;0.98;;;15.60;63.10;;;;;;5114555;28;20583;-57
2024/02/22 04:31:05;;;;;;;1.00;1.00;;;15.60;63.10;;;;;;5114915;28;20719;-61
2024/02/22 04:33:32;;;;;;;1.20;1.10;;;15.60;63.10;;;;;;5114390;28;20666;-56
2024/02/22 04:35:57;;;;;;;1.67;1.27;;;15.60;63.10;;;;;;5114090;28;20189;-57
2024/02/22 04:38:23;;;;;;;1.20;1.10;;;15.60;63.10;;;;;;5113758;28;20190;-57
2024/02/22 04:40:48;;;;;;;2.08;1.20;;;15.60;63.10;;;;;;5114328;28;20173;-57
2024/02/22 04:43:14;;;;;;;1.52;1.20;;;15.60;63.20;;;;;;5113977;28;20215;-57
2024/02/22 04:45:39;;;;;;;1.10;1.10;;;15.60;63.20;;;;;;5114640;28;20542;-57
2024/02/22 04:48:06;;;;;;;1.83;1.23;;;15.60;63.20;;;;;;5113923;28;20180;-55
2024/02/22 04:50:32;;;;;;;1.33;1.23;;;15.60;63.20;;;;;;5114133;28;20170;-57
2024/02/22 04:52:58;;;;;;;1.35;1.13;;;15.60;63.30;;;;;;5114372;28;20653;-57
2024/02/22 04:55:24;;;;;;;1.50;1.40;;;15.60;63.20;;;;;;5113220;28;20575;-56
2024/02/22 04:57:50;;;;;;;2.22;1.50;;;15.60;63.20;;;;;;5114316;28;20659;-58
2024/02/22 05:00:15;;;;;;;1.20;1.08;;;15.60;63.20;;;;;;5114161;28;20181;-57
2024/02/22 05:02:41;;;;;;;1.63;1.17;;;15.60;63.20;;;;;;5112642;28;20177;-57
2024/02/22 05:05:07;;;;;;;1.27;1.17;;;15.60;63.20;;;;;;5114054;28;20218;-56
2024/02/22 05:07:33;;;;;;;1.25;1.15;;;15.60;63.20;;;;;;5113835;28;20175;-57
2024/02/22 05:09:59;;;;;;;1.40;1.30;;;15.60;63.20;;;;;;5113286;28;20261;-56
2024/02/22 05:12:25;;;;;;;1.30;1.20;;;15.60;63.20;;;;;;5113732;28;20924;-57
2024/02/22 05:14:50;;;;;;;1.70;1.20;;;15.60;63.30;;;;;;5113894;28;20187;-57
2024/02/22 05:17:17;;;;;;;1.48;1.23;;;15.60;63.30;;;;;;5112904;28;20177;-57
2024/02/22 05:19:42;;;;;;;2.03;1.35;;;15.60;63.30;;;;;;5113962;28;20257;-57
2024/02/22 05:22:08;;;;;;;1.30;1.20;;;15.60;63.30;;;;;;5113667;28;20267;-57
2024/02/22 05:24:33;;;;;;;1.50;1.25;;;15.60;63.40;;;;;;5112878;28;20204;-57
2024/02/22 05:26:59;;;;;;;1.92;1.30;;;15.50;63.30;;;;;;5113648;28;20200;-56
2024/02/22 05:29:25;;;;;;;1.17;1.05;;;15.60;63.30;;;;;;5113153;28;20184;-54
2024/02/22 05:31:51;;;;;;;3.17;1.35;;;15.60;63.30;;;;;;5113064;28;20218;-57
2024/02/22 05:34:17;;;;;;;1.30;1.20;;;15.60;63.30;;;;;;5113345;28;20177;-56
2024/02/22 05:36:43;;;;;;;1.30;1.08;;;15.60;63.40;;;;;;5113586;28;20173;-57
2024/02/22 05:39:09;;;;;;;0.90;0.90;;;15.60;63.40;;;;;;5112485;28;20635;-57
2024/02/22 05:41:36;;;;;;;1.58;1.20;;;15.50;63.40;;;;;;5113711;28;20204;-57
2024/02/22 05:44:02;;;;;;;2.85;1.70;;;15.50;63.30;;;;;;5113468;28;20225;-57
2024/02/22 05:46:28;;;;;;;1.80;1.35;;;15.50;63.40;;;;;;5112382;28;20169;-57
2024/02/22 05:48:53;;;;;;;2.33;1.30;;;15.60;63.40;;;;;;5113452;28;20222;-57
2024/02/22 05:51:19;;;;;;;2.22;1.17;;;15.50;63.30;;;;;;5112448;28;20222;-57
2024/02/22 05:53:45;;;;;;;3.42;1.58;;;15.50;63.40;;;;;;5113286;28;20206;-57
2024/02/22 05:56:10;;;;;;;2.38;1.38;;;15.50;63.30;;;;;;5112980;28;20224;-57
2024/02/22 05:58:36;;;;;;;2.25;1.40;;;15.50;63.30;;;;;;5112652;28;20179;-57
2024/02/22 06:01:01;;;;;;;1.90;1.15;;;15.50;63.30;;;;;;5113334;28;20222;-56
2024/02/22 06:03:27;;;;;;;2.15;1.40;;;15.50;63.40;;;;;;5112777;28;20701;-56
2024/02/22 06:05:53;;;;;;;1.55;1.27;;;15.50;63.30;;;;;;5112328;28;20253;-57
2024/02/22 06:08:18;;;;;;;1.98;1.27;;;15.50;63.40;;;;;;5112510;28;20708;-56
2024/02/22 06:10:44;;;;;;;1.67;1.15;;;15.50;63.40;;;;;;5113123;28;20701;-57
2024/02/22 06:13:09;;;;;;;2.17;1.20;;;15.50;63.40;;;;;;5112024;28;20662;-58
2024/02/22 06:15:35;;;;;;;2.95;1.40;;;15.50;63.40;;;;;;5112576;28;20538;-58
2024/02/22 06:18:01;;;;;;;2.13;1.50;;;15.50;63.40;;;;;;5112784;28;20180;-58
2024/02/22 06:20:26;;;;;;;1.77;1.13;;;15.50;63.40;;;;;;5111796;28;20169;-58
2024/02/22 06:22:52;;;;;;;1.90;1.35;;;15.50;63.40;;;;;;5112567;28;20193;-58
2024/02/22 06:25:17;;;;;;;2.42;1.60;;;15.50;63.40;;;;;;5112337;28;20169;-58
2024/02/22 06:27:43;;;;;;;1.58;1.30;;;15.50;63.40;;;;;;5112205;28;20585;-58
2024/02/22 06:30:10;;;;;;;3.00;1.60;;;15.50;63.40;;;;;;5112453;28;20259;-57
2024/02/22 06:32:35;;;;;;;1.85;1.33;;;15.50;63.40;;;;;;5112675;28;20180;-58
2024/02/22 06:35:01;;;;;;;1.60;1.50;;;15.50;64.20;;;;;;5111971;28;20169;-56
2024/02/22 06:37:27;;;;;;;2.72;1.98;;;15.50;63.40;;;;;;5112216;28;20173;-58
2024/02/22 06:39:52;;;;;;;2.15;1.38;;;15.50;63.40;;;;;;5112746;28;20207;-58
2024/02/22 06:42:18;;;;;;;1.98;1.40;;;15.50;63.40;;;;;;5111616;28;20639;-58
2024/02/22 06:44:44;;;;;;;2.20;1.70;;;15.50;63.50;;;;;;5112522;28;20299;-58
2024/02/22 06:47:10;;;;;;;1.20;1.20;;;15.40;63.30;;;;;;5112162;28;20176;-57
2024/02/22 06:49:35;;;;;;;1.70;1.25;;;15.50;63.40;;;;;;5111788;28;20173;-56
2024/02/22 06:52:01;;;;;;;1.35;1.25;;;15.50;63.30;;;;;;5112237;28;20173;-57
2024/02/22 06:54:26;;;;;;;1.60;1.27;;;15.50;63.30;;;;;;5112024;28;20180;-58
2024/02/22 06:56:52;;;;;;;3.08;1.45;;;15.50;63.20;;;;;;5111864;28;20262;-58
2024/02/22 06:59:18;;;;;;;4.05;1.70;;;15.50;63.20;;;;;;5112177;28;20196;-57
2024/02/22 07:01:43;;;;;;;2.78;1.40;;;15.60;63.50;;;;;;5111654;28;20180;-58
2024/02/22 07:04:09;;;;;;;2.85;1.13;;;15.60;63.60;;;;;;5111931;28;20197;-58
2024/02/22 07:06:35;;;;;;;3.05;1.63;;;15.70;63.50;;;;;;5112277;28;20247;-58
2024/02/22 07:09:02;;;;;;;3.00;1.52;;;15.80;63.50;;;;;;5111858;28;20173;-57
2024/02/22 07:11:28;;;;;;;4.10;1.63;;;15.90;63.20;;;;;;5112422;28;20181;-58
2024/02/22 07:13:55;;;;;;;2.67;1.20;;;16.10;63.10;;;;;;5112401;28;20257;-58
2024/02/22 07:16:20;;;;;;;1.73;1.05;;;16.20;62.80;;;;;;5111157;28;20689;-58
2024/02/22 07:18:46;;;;;;;1.98;1.00;;;16.30;62.60;;;;;;5112227;28;20189;-58
2024/02/22 07:21:11;;;;;;;2.95;1.20;;;16.40;62.40;;;;;;5111686;28;20176;-55
2024/02/22 07:23:37;;;;;;;1.50;1.20;;;16.60;62.10;;;;;;5111135;28;20564;-58
2024/02/22 07:26:02;;;;;;;1.63;1.13;;;16.70;61.80;;;;;;5116212;27;20639;-57
2024/02/22 07:28:28;;;;;;;2.67;1.27;;;16.80;61.80;;;;;;5126173;27;20267;-55
2024/02/22 07:30:54;;;;;;;1.65;0.95;;;16.90;61.40;;;;;;5121281;27;20263;-54
2024/02/22 07:33:19;;;;;;;2.30;1.00;;;17.00;61.20;;;;;;5115348;28;20977;-57
2024/02/22 07:35:45;;;;;;;2.35;1.10;;;17.00;61.20;;;;;;5115626;28;20204;-58
2024/02/22 07:38:10;;;;;;;1.67;1.00;;;17.10;61.30;;;;;;5113955;28;20440;-61
2024/02/22 07:40:36;;;;;;;2.33;1.10;;;17.30;60.70;;;;;;5115911;28;20173;-61
2024/02/22 07:43:01;;;;;;;2.53;1.20;;;17.30;60.60;;;;;;5115528;28;20557;-61
2024/02/22 07:45:28;;;;;;;3.63;1.42;;;17.30;60.90;;;;;;5114519;28;20643;-61
2024/02/22 07:47:56;;;;;;;2.63;1.23;;;17.30;61.00;;;;;;5115484;28;20173;-61
2024/02/22 07:50:23;;;;;;;3.05;1.30;;;17.30;61.10;;;;;;5115109;28;20188;-61
2024/02/22 07:52:48;;;;;;;3.35;1.02;;;17.30;61.00;;;;;;5114643;28;20177;-61
2024/02/22 07:55:14;;;;;;;3.47;1.48;;;17.30;61.10;;;;;;5115017;28;20577;-61
2024/02/22 07:57:39;;;;;;;1.50;1.17;;;17.40;61.00;;;;;;5115296;28;20224;-62
2024/02/22 08:00:07;;;;;;;2.13;1.10;;;17.40;61.00;;;;;;5114711;28;20635;-61
2024/02/22 08:02:33;;;;;;;3.05;1.10;;;17.40;61.00;;;;;;5115133;28;20223;-61
2024/02/22 08:04:59;;;;;;;2.13;1.10;;;17.40;61.00;;;;;;5114455;28;20655;-62
2024/02/22 08:07:24;;;;;;;1.30;1.20;;;17.50;61.10;;;;;;5114855;28;20177;-61
2024/02/22 08:09:50;;;;;;;3.17;1.35;;;17.50;61.00;;;;;;5115291;28;20173;-61
2024/02/22 08:12:15;;;;;;;2.80;1.25;;;17.50;60.90;;;;;;5114233;28;20169;-62
2024/02/22 08:14:41;;;;;;;3.75;1.33;;;17.50;60.90;;;;;;5114921;28;20260;-61
2024/02/22 08:17:07;;;;;;;2.08;1.10;;;17.60;60.80;;;;;;5114863;28;20234;-61
2024/02/22 08:19:32;;;;;;;4.30;1.33;;;17.60;60.80;;;;;;5113956;28;20226;-61
2024/02/22 08:21:58;;;;;;;1.63;1.10;;;17.60;60.80;;;;;;5115071;28;20181;-62
2024/02/22 08:24:23;;;;;;;2.58;1.25;;;17.60;60.70;;;;;;5114721;28;20384;-62
2024/02/22 08:26:49;;;;;;;2.53;1.02;;;17.60;60.80;;;;;;5114314;28;20173;-62
2024/02/22 08:29:15;;;;;;;2.88;1.10;;;17.60;60.70;;;;;;5114259;28;20181;-61
2024/02/22 08:31:40;;;;;;;2.53;1.20;;;17.60;60.70;;;;;;5114778;28;20222;-60
2024/02/22 08:34:09;;;;;;;3.30;1.10;;;17.60;60.70;;;;;;5113594;28;20652;-62
2024/02/22 08:36:34;;;;;;;2.25;1.52;;;17.60;60.90;;;;;;5114697;28;20515;-62
2024/02/22 08:39:00;;;;;;;1.20;1.10;;;17.50;61.10;;;;;;5114655;28;20702;-61
2024/02/22 08:41:26;;;;;;;4.07;1.20;;;17.40;61.20;;;;;;5113444;28;20173;-62
2024/02/22 08:43:57;;;;;;;1.58;1.33;;;17.40;61.50;;;;;;5114342;28;20201;-61
2024/02/22 08:46:23;;;;;;;1.63;0.98;;;17.40;61.60;;;;;;5114052;28;20531;-61
2024/02/22 08:48:49;;;;;;;1.23;0.77;;;17.40;61.60;;;;;;5113695;28;20181;-62
2024/02/22 08:51:16;;;;;;;1.88;1.20;;;17.30;61.80;;;;;;5114180;28;20260;-62
2024/02/22 08:53:43;;;;;;;3.55;1.45;;;17.30;61.80;;;;;;5114438;28;20544;-61
2024/02/22 08:56:09;;;;;;;2.08;1.00;;;17.30;62.00;;;;;;5112993;28;20232;-62
2024/02/22 08:58:37;;;;;;;3.75;1.00;;;17.20;62.00;;;;;;5112933;28;20184;-61
2024/02/22 09:01:03;;;;;;;2.80;1.10;;;17.20;62.10;;;;;;5114012;28;20177;-61
2024/02/22 09:03:28;;;;;;;1.63;1.00;;;17.10;62.20;;;;;;5112212;28;20216;-61
2024/02/22 09:05:54;;;;;;;2.80;1.30;;;17.10;62.20;;;;;;5113958;28;20649;-62
2024/02/22 09:08:20;;;;;;;2.38;1.23;;;17.10;62.40;;;;;;5112905;28;20233;-62
2024/02/22 09:10:48;;;;;;;1.85;1.10;;;17.00;62.40;;;;;;5114107;28;20176;-62
2024/02/22 09:13:13;;;;;;;2.15;1.20;;;17.00;62.50;;;;;;5113547;28;20173;-62
2024/02/22 09:15:39;;;;;;;2.05;1.20;;;17.00;62.50;;;;;;5113175;28;20184;-61
2024/02/22 09:18:05;;;;;;;1.10;1.00;;;17.00;62.60;;;;;;5113811;28;20176;-61
2024/02/22 09:20:30;;;;;;;1.80;1.20;;;17.00;62.50;;;;;;5113708;28;20233;-61
2024/02/22 09:22:56;;;;;;;1.33;1.05;;;16.90;62.60;;;;;;5113160;28;20201;-61
2024/02/22 09:25:21;;;;;;;3.30;1.00;;;16.90;62.60;;;;;;5113323;28;20181;-61
2024/02/22 09:27:47;;;;;;;2.58;0.73;;;16.90;62.70;;;;;;5113670;28;20173;-61
2024/02/22 09:30:13;;;;;;;2.22;1.08;;;16.80;62.70;;;;;;5112659;28;20531;-61
2024/02/22 09:32:38;;;;;;;1.33;0.90;;;16.80;62.70;;;;;;5113464;28;20181;-61
2024/02/22 09:35:06;;;;;;;2.05;0.95;;;16.80;62.90;;;;;;5113748;28;20173;-61
2024/02/22 09:37:32;;;;;;;1.38;1.02;;;16.80;62.90;;;;;;5111410;28;20200;-62
2024/02/22 09:39:57;;;;;;;3.42;1.00;;;16.80;62.90;;;;;;5113604;28;20273;-62
2024/02/22 09:42:29;;;;;;;1.00;1.00;;;16.80;63.60;;;;;;5112949;28;20184;-62
2024/02/22 09:44:55;;;;;;;5.07;1.30;;;16.90;62.70;;;;;;5112413;28;20228;-61
2024/02/22 09:47:20;;;;;;;1.40;0.80;;;16.90;62.60;;;;;;5113158;28;20180;-61
2024/02/22 09:49:46;;;;;;;0.75;0.57;;;16.90;62.60;;;;;;5112794;28;20255;-61
2024/02/22 09:52:14;;;;;;;0.80;0.80;;;16.90;62.60;;;;;;5110989;28;20169;-61
2024/02/22 09:54:42;;;;;;;1.10;0.75;;;16.80;62.70;;;;;;5113169;28;20209;-61
2024/02/22 09:57:08;;;;;;;1.67;0.63;;;16.80;62.60;;;;;;5112698;28;20691;-61
2024/02/22 09:59:33;;;;;;;0.80;0.80;;;16.80;62.70;;;;;;5112319;28;20180;-61
2024/02/22 10:02:05;;;;;;;0.80;0.80;;;16.80;62.80;;;;;;5113007;28;20169;-61
2024/02/22 10:04:31;;;;;;;1.25;0.93;;;16.80;62.80;;;;;;5112047;28;20214;-61
2024/02/22 10:07:00;;;;;;;2.45;0.73;;;16.80;62.80;;;;;;5112973;28;20169;-61
2024/02/22 10:09:27;;;;;;;1.30;0.80;;;16.80;62.80;;;;;;5112679;28;20173;-62
2024/02/22 10:11:53;;;;;;;0.75;0.63;;;16.70;62.80;;;;;;5112052;28;20632;-62
2024/02/22 10:14:18;;;;;;;1.83;0.80;;;16.70;62.80;;;;;;5112379;28;20184;-62
2024/02/22 10:16:47;;;;;;;1.65;0.73;;;16.70;62.80;;;;;;5112931;28;20169;-61
2024/02/22 10:19:13;;;;;;;0.80;0.70;;;16.70;62.80;;;;;;5111828;28;20272;-62
2024/02/22 10:21:38;;;;;;;1.25;0.73;;;16.70;63.10;;;;;;5112672;28;20173;-62
2024/02/22 10:24:04;;;;;;;1.10;0.70;;;16.70;63.20;;;;;;5112433;28;20223;-61
2024/02/22 10:26:30;;;;;;;1.10;0.80;;;16.70;63.20;;;;;;5111514;28;20205;-61
2024/02/22 10:29:08;;;;;;;0.70;0.52;;;16.70;63.20;;;;;;5112508;28;20216;-61
2024/02/22 10:31:40;;;;;;;1.00;0.73;;;16.60;63.10;;;;;;5112706;28;20217;-61
2024/02/22 10:34:05;;;;;;;0.70;0.70;;;16.60;63.20;;;;;;5111951;28;20180;-61
2024/02/22 10:36:31;;;;;;;0.82;0.82;;;16.60;63.20;;;;;;5111034;28;20192;-62
2024/02/22 10:38:56;;;;;;;1.05;0.88;;;16.60;63.20;;;;;;5112464;28;20173;-62
2024/02/22 10:41:22;;;;;;;1.10;0.80;;;16.60;63.20;;;;;;5110212;28;20543;-62
2024/02/22 10:43:48;;;;;;;2.00;0.80;;;16.50;63.10;;;;;;5112537;28;20304;-61
2024/02/22 10:46:13;;;;;;;0.73;0.73;;;16.50;63.40;;;;;;5112192;28;20169;-61
2024/02/22 10:48:43;;;;;;;0.85;0.80;;;16.50;63.20;;;;;;5110552;28;20510;-61
2024/02/22 10:51:08;;;;;;;1.27;0.80;;;16.50;63.30;;;;;;5110877;28;20212;-62
2024/02/22 10:53:38;;;;;;;2.75;0.85;;;16.50;63.30;;;;;;5110966;28;20200;-61
2024/02/22 10:56:04;;;;;;;1.60;0.70;;;16.50;63.30;;;;;;5110895;28;20300;-61
2024/02/22 10:58:32;;;;;;;0.60;0.60;;;16.40;63.30;;;;;;5112335;28;20177;-61
2024/02/22 11:00:58;;;;;;;0.95;0.63;;;16.40;64.20;;;;;;5111447;28;20458;-61
2024/02/22 11:03:25;;;;;;;0.77;0.77;;;16.40;63.40;;;;;;5115021;28;20739;-61
2024/02/22 11:05:51;;;;;;;0.55;0.50;;;16.40;63.50;;;;;;5115455;28;20180;-61
2024/02/22 11:08:23;;;;;;;0.80;0.73;;;16.40;63.50;;;;;;5115310;28;20944;-61
2024/02/22 11:11:04;;;;;;;0.95;0.80;;;16.40;63.50;;;;;;5116337;28;20624;-62
2024/02/22 11:13:30;;;;;;;1.08;0.93;;;16.40;63.50;;;;;;5115935;28;20635;-61
2024/02/22 11:15:55;;;;;;;0.80;0.70;;;16.40;63.50;;;;;;5115685;28;20260;-62
2024/02/22 11:18:24;;;;;;;1.17;0.63;;;16.40;63.50;;;;;;5115808;28;20225;-61
2024/02/22 11:20:50;;;;;;;0.77;0.77;;;16.40;63.50;;;;;;5116147;28;20226;-61
2024/02/22 11:23:17;;;;;;;0.63;0.52;;;16.40;63.50;;;;;;5115224;28;20205;-62
2024/02/22 11:25:43;;;;;;;0.77;0.65;;;16.40;63.50;;;;;;5116132;28;20169;-61
2024/02/22 11:28:09;;;;;;;0.70;0.70;;;16.40;63.60;;;;;;5115953;28;20212;-61
2024/02/22 11:30:35;;;;;;;1.35;0.70;;;16.40;63.60;;;;;;5115387;28;20212;-61
2024/02/22 11:33:00;;;;;;;1.25;0.95;;;16.40;63.60;;;;;;5115903;28;20628;-61
2024/02/22 11:35:26;;;;;;;1.40;0.88;;;16.40;63.60;;;;;;5115543;28;20173;-62
2024/02/22 11:37:56;;;;;;;1.17;0.73;;;16.30;63.60;;;;;;5115109;28;20639;-62
2024/02/22 11:40:22;;;;;;;0.98;0.60;;;16.40;63.60;;;;;;5115651;28;20184;-61
2024/02/22 11:42:55;;;;;;;1.10;0.77;;;16.30;63.60;;;;;;5115756;28;20172;-61
2024/02/22 11:45:20;;;;;;;0.47;0.40;;;16.30;63.60;;;;;;5115169;28;20181;-61
2024/02/22 11:47:46;;;;;;;0.60;0.60;;;16.30;63.70;;;;;;5115562;28;20294;-61
2024/02/22 11:50:12;;;;;;;1.02;0.70;;;16.30;63.60;;;;;;5113637;28;20188;-61
2024/02/22 11:52:38;;;;;;;0.55;0.50;;;16.30;63.60;;;;;;5114497;28;20176;-61
2024/02/22 11:55:04;;;;;;;1.05;0.95;;;16.30;63.60;;;;;;5115632;28;20252;-61
2024/02/22 11:57:30;;;;;;;2.47;0.70;;;16.30;63.60;;;;;;5113357;28;20236;-61
2024/02/22 11:59:55;;;;;;;2.95;0.90;;;16.30;63.80;;;;;;5114319;28;20161;-61
2024/02/22 12:02:21;;;;;;;1.00;0.70;;;16.30;64.00;;;;;;5113880;28;20169;-62
2024/02/22 12:04:46;;;;;;;0.98;0.60;;;16.20;63.80;;;;;;5112182;28;20220;-63
2024/02/22 12:07:12;;;;;;;0.80;0.70;;;16.20;63.70;;;;;;5112732;28;20169;-63
2024/02/22 12:09:37;;;;;;;1.67;0.70;;;16.20;63.70;;;;;;5114225;28;20256;-64
2024/02/22 12:12:03;;;;;;;1.15;0.70;;;16.30;63.70;;;;;;5111930;28;20580;-63
2024/02/22 12:14:29;;;;;;;1.30;0.70;;;16.30;63.60;;;;;;5112448;28;20173;-64
2024/02/22 12:16:57;;;;;;;0.77;0.60;;;16.30;63.50;;;;;;5114084;28;20226;-62
2024/02/22 12:19:23;;;;;;;1.42;0.70;;;16.40;63.50;;;;;;5112925;28;20191;-63
2024/02/22 12:21:49;;;;;;;1.27;0.80;;;16.30;63.50;;;;;;5114118;28;20640;-64
2024/02/22 12:24:14;;;;;;;1.60;0.70;;;16.40;63.60;;;;;;5113530;28;20698;-65
2024/02/22 12:26:40;;;;;;;0.65;0.65;;;16.40;63.60;;;;;;5113295;28;20192;-63
2024/02/22 12:29:06;;;;;;;1.15;0.63;;;16.30;63.60;;;;;;5113981;28;20181;-63
2024/02/22 12:31:32;;;;;;;0.60;0.60;;;16.30;63.70;;;;;;5113657;28;20196;-64
2024/02/22 12:33:57;;;;;;;0.75;0.60;;;16.30;63.70;;;;;;5113054;28;20636;-65
2024/02/22 12:36:24;;;;;;;1.48;0.60;;;16.30;63.70;;;;;;5113275;28;20188;-64
2024/02/22 12:38:49;;;;;;;1.77;0.57;;;16.30;63.70;;;;;;5113662;28;20181;-64
2024/02/22 12:41:16;;;;;;;0.70;0.70;;;16.40;63.80;;;;;;5112664;28;20176;-63